Time;durP1;ratioP1;P1;durP2;ratioP2;P2;SDS_P1;SDS_P2;PMS_P1;PMS_P2;Temp;Humidity;BMP_temperature;BMP_pressure;BME280_temperature;BME280_humidity;BME280_pressure;Samples;Min_cycle;Max_cycle;Signal;HPM_P1;HPM_P2
2023/12/01 00:02:03;;;;;;;41.17;15.65;;;-0.40;99.90;;;;;;5013514;28;20053;-72
2023/12/01 00:04:28;;;;;;;37.17;15.18;;;-0.40;99.90;;;;;;5010221;28;20086;-71
2023/12/01 00:06:55;;;;;;;38.67;15.05;;;-0.40;99.90;;;;;;5009842;28;20076;-71
2023/12/01 00:09:21;;;;;;;40.72;16.50;;;-0.40;99.90;;;;;;5012546;28;20030;-71
2023/12/01 00:11:46;;;;;;;35.58;15.50;;;-0.40;99.90;;;;;;5011186;28;20447;-71
2023/12/01 00:14:12;;;;;;;32.40;15.18;;;-0.40;99.90;;;;;;5013180;28;20033;-71
2023/12/01 00:16:37;;;;;;;41.45;16.27;;;-0.40;99.90;;;;;;5013265;28;20046;-73
2023/12/01 00:19:03;;;;;;;39.50;16.23;;;-0.40;99.90;;;;;;5012323;28;20085;-71
2023/12/01 00:21:28;;;;;;;40.50;16.70;;;-0.50;99.90;;;;;;5013077;28;20046;-71
2023/12/01 00:23:54;;;;;;;36.63;16.20;;;-0.40;99.90;;;;;;5013093;28;20034;-72
2023/12/01 00:26:20;;;;;;;39.67;16.63;;;-0.40;99.90;;;;;;5012679;28;20120;-71
2023/12/01 00:28:45;;;;;;;42.38;18.30;;;-0.40;99.90;;;;;;5010465;28;20025;-70
2023/12/01 00:31:11;;;;;;;42.95;17.48;;;-0.40;99.90;;;;;;5018562;28;20026;-71
2023/12/01 00:33:37;;;;;;;44.35;19.15;;;-0.40;99.90;;;;;;5013085;28;20027;-71
2023/12/01 00:36:03;;;;;;;44.28;17.90;;;-0.40;99.90;;;;;;5012861;28;20119;-71
2023/12/01 00:38:32;;;;;;;47.85;19.13;;;-0.40;99.90;;;;;;5012312;28;20030;-71
2023/12/01 00:40:57;;;;;;;43.33;18.10;;;-0.40;99.90;;;;;;5013028;28;20046;-72
2023/12/01 00:43:24;;;;;;;49.97;19.80;;;-0.40;99.90;;;;;;5011547;28;20030;-72
2023/12/01 00:45:49;;;;;;;46.17;18.83;;;-0.40;99.90;;;;;;5012095;28;20037;-71
2023/12/01 00:48:15;;;;;;;48.25;19.20;;;-0.50;99.90;;;;;;5012278;28;20026;-72
2023/12/01 00:50:41;;;;;;;47.92;19.88;;;-0.50;99.90;;;;;;5011353;28;20030;-71
2023/12/01 00:53:07;;;;;;;45.75;18.58;;;-0.50;99.90;;;;;;5011237;28;20026;-72
2023/12/01 00:55:32;;;;;;;45.45;19.20;;;-0.50;99.90;;;;;;5012788;28;20487;-72
2023/12/01 00:57:58;;;;;;;46.25;19.38;;;-0.50;99.90;;;;;;5012053;28;20030;-70
2023/12/01 01:00:24;;;;;;;47.40;19.25;;;-0.60;99.90;;;;;;5012552;28;20542;-70
2023/12/01 01:02:50;;;;;;;42.58;18.70;;;-0.60;99.90;;;;;;5012277;28;20048;-72
2023/12/01 01:05:16;;;;;;;51.42;20.58;;;-0.60;99.90;;;;;;5012010;28;20904;-71
2023/12/01 01:07:42;;;;;;;45.05;18.58;;;-0.60;99.90;;;;;;5010741;28;20086;-71
2023/12/01 01:10:08;;;;;;;49.40;19.50;;;-0.60;99.90;;;;;;5011870;28;20046;-71
2023/12/01 01:12:34;;;;;;;47.70;19.50;;;-0.70;99.90;;;;;;5012343;28;20029;-71
2023/12/01 01:15:03;;;;;;;49.22;19.70;;;-0.70;99.90;;;;;;5011723;28;20058;-72
2023/12/01 01:17:29;;;;;;;47.10;20.52;;;-0.80;99.90;;;;;;5012355;28;20330;-71
2023/12/01 01:19:55;;;;;;;44.60;19.65;;;-0.80;99.90;;;;;;5012502;28;20029;-71
2023/12/01 01:22:21;;;;;;;48.15;19.92;;;-0.80;99.90;;;;;;5011436;28;20150;-70
2023/12/01 01:24:46;;;;;;;50.88;20.58;;;-0.80;99.90;;;;;;5011344;28;20018;-71
2023/12/01 01:27:12;;;;;;;46.15;19.50;;;-0.70;99.90;;;;;;5011757;28;20069;-71
2023/12/01 01:29:38;;;;;;;51.85;20.77;;;-0.80;99.90;;;;;;5012234;28;20068;-72
2023/12/01 01:32:04;;;;;;;52.47;20.58;;;-0.80;99.90;;;;;;5011567;28;20072;-73
2023/12/01 01:34:30;;;;;;;50.03;20.95;;;-0.80;99.90;;;;;;5012463;28;20475;-72
2023/12/01 01:36:57;;;;;;;46.75;19.58;;;-0.80;99.90;;;;;;5012151;28;20026;-72
2023/12/01 01:39:22;;;;;;;46.83;19.42;;;-0.90;99.90;;;;;;5011134;28;20041;-71
2023/12/01 01:41:48;;;;;;;45.22;20.48;;;-0.90;99.90;;;;;;5009045;28;20034;-72
2023/12/01 01:44:15;;;;;;;52.28;21.50;;;-0.90;99.90;;;;;;5010078;28;20045;-71
2023/12/01 01:46:41;;;;;;;52.17;20.55;;;-0.90;99.90;;;;;;5011393;28;20052;-71
2023/12/01 01:49:07;;;;;;;53.00;21.10;;;-1.00;99.90;;;;;;5011758;28;20022;-72
2023/12/01 01:51:35;;;;;;;49.70;21.23;;;-1.00;99.90;;;;;;5011954;28;20030;-71
2023/12/01 01:54:02;;;;;;;51.45;20.27;;;-1.00;99.90;;;;;;5011423;28;20022;-72
2023/12/01 01:56:31;;;;;;;50.50;21.30;;;-1.00;99.90;;;;;;5012019;28;20023;-72
2023/12/01 01:58:57;;;;;;;53.17;21.10;;;-1.00;99.90;;;;;;5010272;28;20026;-75
2023/12/01 02:01:25;;;;;;;50.08;21.35;;;-1.10;99.90;;;;;;5009270;28;20113;-70
2023/12/01 02:03:53;;;;;;;54.65;21.85;;;-1.10;99.90;;;;;;5011211;28;20026;-71
2023/12/01 02:06:19;;;;;;;55.58;22.88;;;-1.00;99.90;;;;;;5011156;28;20081;-69
2023/12/01 02:08:45;;;;;;;54.83;22.85;;;-1.00;99.90;;;;;;5011484;28;20102;-70
2023/12/01 02:11:14;;;;;;;54.05;22.30;;;-1.10;99.90;;;;;;5009659;28;20022;-72
2023/12/01 02:13:40;;;;;;;52.03;21.83;;;-1.10;99.90;;;;;;5011200;28;20077;-69
2023/12/01 02:16:08;;;;;;;61.42;24.33;;;-1.00;99.90;;;;;;5011518;28;20030;-71
2023/12/01 02:18:34;;;;;;;60.90;24.02;;;-1.00;99.90;;;;;;5011689;28;20029;-71
2023/12/01 02:21:00;;;;;;;59.47;22.83;;;-1.00;99.90;;;;;;5011719;28;20058;-72
2023/12/01 02:23:26;;;;;;;56.20;22.77;;;-1.00;99.90;;;;;;5010215;28;20037;-71
2023/12/01 02:25:52;;;;;;;57.53;23.27;;;-1.10;99.90;;;;;;5007072;28;20076;-70
2023/12/01 02:28:18;;;;;;;51.20;21.98;;;-1.10;99.90;;;;;;5011300;28;20022;-70
2023/12/01 02:30:50;;;;;;;58.22;24.25;;;-1.20;99.90;;;;;;5011021;28;20032;-72
2023/12/01 02:33:17;;;;;;;63.47;24.92;;;-1.30;99.90;;;;;;5010882;28;20014;-71
2023/12/01 02:35:46;;;;;;;60.35;24.10;;;-1.30;99.90;;;;;;5010885;28;20034;-74
2023/12/01 02:38:12;;;;;;;61.95;24.73;;;-1.40;99.90;;;;;;5011380;28;20038;-72
2023/12/01 02:40:42;;;;;;;56.92;24.05;;;-1.30;99.90;;;;;;5011109;28;20049;-71
2023/12/01 02:43:09;;;;;;;64.45;24.33;;;-1.40;99.90;;;;;;5011114;28;20023;-73
2023/12/01 02:45:34;;;;;;;63.47;25.08;;;-1.30;99.90;;;;;;5011066;28;20054;-72
2023/12/01 02:48:00;;;;;;;65.38;26.40;;;-1.30;99.90;;;;;;5011441;28;20033;-72
2023/12/01 02:50:26;;;;;;;63.78;25.80;;;-1.30;99.90;;;;;;5011822;28;20026;-71
2023/12/01 02:52:51;;;;;;;61.38;24.95;;;-1.30;99.90;;;;;;5013854;28;20510;-73
2023/12/01 02:55:17;;;;;;;70.03;26.80;;;-1.30;99.90;;;;;;5014186;28;20065;-72
2023/12/01 02:57:43;;;;;;;67.15;25.65;;;-1.30;99.90;;;;;;5014152;28;20040;-73
2023/12/01 03:00:13;;;;;;;63.15;25.55;;;-1.30;99.90;;;;;;5014218;28;20038;-72
2023/12/01 03:02:40;;;;;;;63.70;24.00;;;-1.30;99.90;;;;;;5013259;28;20028;-73
2023/12/01 03:05:07;;;;;;;69.03;27.67;;;-1.30;99.90;;;;;;5014654;28;20069;-72
2023/12/01 03:07:32;;;;;;;73.45;29.17;;;-1.30;99.90;;;;;;5014829;28;20032;-72
2023/12/01 03:09:58;;;;;;;60.13;24.35;;;-1.30;99.90;;;;;;5014317;28;20042;-73
2023/12/01 03:12:24;;;;;;;71.45;27.42;;;-1.30;99.90;;;;;;5014160;28;20030;-72
2023/12/01 03:14:49;;;;;;;69.35;26.55;;;-1.30;99.90;;;;;;5012807;28;20022;-73
2023/12/01 03:17:15;;;;;;;64.80;24.83;;;-1.30;99.90;;;;;;5013562;28;20057;-72
2023/12/01 03:19:41;;;;;;;72.22;26.25;;;-1.30;99.90;;;;;;5012889;28;20030;-71
2023/12/01 03:22:06;;;;;;;65.05;26.23;;;-1.30;99.90;;;;;;5014068;28;20065;-72
2023/12/01 03:24:32;;;;;;;66.13;26.67;;;-1.30;99.90;;;;;;5013320;28;20038;-72
2023/12/01 03:26:57;;;;;;;64.78;25.40;;;-1.20;99.90;;;;;;5013448;28;20097;-72
2023/12/01 03:29:23;;;;;;;62.78;25.77;;;-1.30;99.90;;;;;;5013694;28;20081;-71
2023/12/01 03:31:49;;;;;;;61.03;24.63;;;-1.30;99.90;;;;;;5013447;28;20022;-71
2023/12/01 03:34:15;;;;;;;69.72;25.88;;;-1.30;99.90;;;;;;5011496;28;20084;-71
2023/12/01 03:36:40;;;;;;;64.57;24.42;;;-1.20;99.90;;;;;;5012972;28;20022;-72
2023/12/01 03:39:06;;;;;;;69.30;27.17;;;-1.20;99.90;;;;;;5012623;28;20031;-73
2023/12/01 03:41:32;;;;;;;68.70;27.60;;;-1.30;99.90;;;;;;5013178;28;20660;-72
2023/12/01 03:43:58;;;;;;;61.35;24.83;;;-1.20;99.90;;;;;;5012740;28;20053;-72
2023/12/01 03:46:23;;;;;;;61.80;23.98;;;-1.20;99.90;;;;;;5011801;28;20064;-72
2023/12/01 03:48:49;;;;;;;66.72;26.23;;;-1.20;99.90;;;;;;5011207;28;20029;-72
2023/12/01 03:51:15;;;;;;;58.63;23.73;;;-1.30;99.90;;;;;;5013242;28;20041;-72
2023/12/01 03:53:40;;;;;;;57.63;23.02;;;-1.30;99.90;;;;;;5011903;28;20057;-73
2023/12/01 03:56:06;;;;;;;61.47;23.63;;;-1.30;99.90;;;;;;5012481;28;20038;-73
2023/12/01 03:58:32;;;;;;;58.25;23.58;;;-1.40;99.90;;;;;;5013264;28;20028;-72
2023/12/01 04:00:58;;;;;;;61.28;24.05;;;-1.40;99.90;;;;;;5010612;28;20124;-72
2023/12/01 04:03:24;;;;;;;61.58;24.75;;;-1.40;99.90;;;;;;5012049;28;20030;-73
2023/12/01 04:05:50;;;;;;;68.68;26.15;;;-1.50;99.90;;;;;;5012626;28;20044;-73
2023/12/01 04:08:16;;;;;;;60.38;24.02;;;-1.60;99.90;;;;;;5012013;28;20103;-72
2023/12/01 04:10:42;;;;;;;67.50;26.35;;;-1.60;99.90;;;;;;5012874;28;20865;-72
2023/12/01 04:13:08;;;;;;;65.03;25.27;;;-1.60;99.90;;;;;;5011485;28;20097;-72
2023/12/01 04:15:36;;;;;;;66.72;25.58;;;-1.60;99.90;;;;;;5005942;28;20679;-73
2023/12/01 04:18:08;;;;;;;66.65;25.45;;;-1.70;99.90;;;;;;5009235;28;20057;-71
2023/12/01 04:20:41;;;;;;;70.38;27.33;;;-1.70;99.90;;;;;;5010553;28;20104;-73
2023/12/01 04:23:10;;;;;;;70.00;26.02;;;-1.70;99.90;;;;;;5010867;28;20030;-72
2023/12/01 04:25:38;;;;;;;67.10;26.33;;;-1.70;99.90;;;;;;5012168;28;20077;-71
2023/12/01 04:28:05;;;;;;;75.07;27.35;;;-1.80;99.90;;;;;;5010569;28;20109;-74
2023/12/01 04:30:35;;;;;;;70.63;26.63;;;-1.80;99.90;;;;;;5012846;28;20422;-71
2023/12/01 04:33:01;;;;;;;72.90;27.38;;;-1.90;99.90;;;;;;5011796;28;20076;-71
2023/12/01 04:35:29;;;;;;;74.72;27.23;;;-1.90;99.90;;;;;;5011956;28;20039;-71
2023/12/01 04:37:56;;;;;;;73.53;27.92;;;-1.90;99.90;;;;;;5012576;28;20018;-72
2023/12/01 04:40:22;;;;;;;77.28;29.70;;;-1.90;99.90;;;;;;5010339;28;20045;-72
2023/12/01 04:42:49;;;;;;;77.95;30.02;;;-2.00;99.90;;;;;;5011552;28;20030;-71
2023/12/01 04:45:19;;;;;;;78.05;29.50;;;-2.00;99.90;;;;;;5012452;28;20026;-72
2023/12/01 04:47:50;;;;;;;73.25;27.73;;;-1.90;99.90;;;;;;5011287;28;20113;-71
2023/12/01 04:50:17;;;;;;;73.93;27.77;;;-2.00;99.90;;;;;;5011949;28;20058;-72
2023/12/01 04:52:44;;;;;;;68.60;27.13;;;-2.00;99.90;;;;;;5011639;28;20036;-73
2023/12/01 04:55:14;;;;;;;72.90;27.55;;;-2.00;99.90;;;;;;5012071;28;20042;-72
2023/12/01 04:57:42;;;;;;;70.78;27.85;;;-2.10;99.90;;;;;;5012201;28;20030;-73
2023/12/01 05:02:51;;;;;;;71.15;27.38;;;-2.10;99.90;;;;;;5011522;28;20080;-72
2023/12/01 05:05:18;;;;;;;73.88;28.33;;;-2.10;99.90;;;;;;5011177;28;20045;-73
2023/12/01 05:07:44;;;;;;;73.97;26.85;;;-2.10;99.90;;;;;;5011531;28;20053;-72
2023/12/01 05:10:14;;;;;;;79.45;28.42;;;-2.10;99.90;;;;;;5012292;28;20038;-73
2023/12/01 05:12:44;;;;;;;72.43;27.55;;;-2.10;99.90;;;;;;5010535;28;20032;-72
2023/12/01 05:15:15;;;;;;;69.53;27.52;;;-2.10;99.90;;;;;;5009133;28;20479;-72
2023/12/01 05:17:50;;;;;;;76.18;28.92;;;-2.10;99.90;;;;;;5011314;28;20447;-71
2023/12/01 05:20:17;;;;;;;71.50;27.33;;;-2.10;99.90;;;;;;5010436;28;20483;-72
2023/12/01 05:22:47;;;;;;;76.15;28.38;;;-2.10;99.90;;;;;;5011029;28;20443;-72
2023/12/01 05:25:13;;;;;;;78.18;29.33;;;-2.10;99.90;;;;;;5010051;28;20114;-72
2023/12/01 05:27:50;;;;;;;76.28;28.02;;;-2.10;99.90;;;;;;5011828;28;20040;-72
2023/12/01 05:30:19;;;;;;;71.90;26.35;;;-2.10;99.90;;;;;;5008778;28;20042;-71
2023/12/01 05:32:47;;;;;;;70.05;27.05;;;-2.20;99.90;;;;;;5011020;28;20018;-72
2023/12/01 05:35:13;;;;;;;67.13;27.23;;;-2.20;99.90;;;;;;5010337;28;20098;-71
2023/12/01 05:37:40;;;;;;;70.57;26.65;;;-2.20;99.90;;;;;;5011461;28;20085;-72
2023/12/01 05:40:09;;;;;;;76.13;28.00;;;-2.30;99.90;;;;;;5009820;28;20030;-73
2023/12/01 05:42:35;;;;;;;73.07;26.95;;;-2.30;99.90;;;;;;5003244;28;20026;-71
2023/12/01 05:45:05;;;;;;;75.38;26.90;;;-2.30;99.90;;;;;;5011420;28;20033;-71
2023/12/01 05:47:30;;;;;;;79.43;28.73;;;-2.40;99.90;;;;;;5010269;28;20030;-70
2023/12/01 05:49:56;;;;;;;75.10;27.63;;;-2.40;99.90;;;;;;5011731;28;20061;-71
2023/12/01 05:52:21;;;;;;;67.70;26.27;;;-2.40;99.90;;;;;;5010747;28;20030;-74
2023/12/01 05:54:48;;;;;;;77.80;27.92;;;-2.50;99.90;;;;;;5006775;28;20504;-73
2023/12/01 05:57:14;;;;;;;70.05;26.10;;;-2.50;99.90;;;;;;5011533;28;20060;-73
2023/12/01 05:59:42;;;;;;;74.03;28.55;;;-2.50;99.90;;;;;;5006243;28;20026;-70
2023/12/01 06:02:11;;;;;;;72.75;26.63;;;-2.50;99.90;;;;;;5005295;28;22308;-73
2023/12/01 06:04:38;;;;;;;71.85;26.90;;;-2.50;99.90;;;;;;5009351;28;20062;-74
2023/12/01 06:07:08;;;;;;;64.45;24.48;;;-2.50;99.90;;;;;;5011445;28;20032;-74
2023/12/01 06:09:37;;;;;;;67.53;25.77;;;-2.50;99.90;;;;;;5011418;28;20125;-74
2023/12/01 06:12:03;;;;;;;63.60;25.50;;;-2.50;99.90;;;;;;5005638;28;20499;-72
2023/12/01 06:14:29;;;;;;;73.78;26.83;;;-2.50;99.90;;;;;;5006613;28;20090;-72
2023/12/01 06:16:54;;;;;;;73.32;28.48;;;-2.60;99.90;;;;;;5010421;28;20077;-73
2023/12/01 06:19:20;;;;;;;74.43;27.60;;;-2.60;99.90;;;;;;5006949;28;20030;-71
2023/12/01 06:21:45;;;;;;;70.57;26.60;;;-2.60;99.90;;;;;;5010211;28;20033;-71
2023/12/01 06:24:11;;;;;;;70.75;26.25;;;-2.70;99.90;;;;;;5010343;28;20053;-70
2023/12/01 06:26:39;;;;;;;75.43;27.77;;;-2.70;99.90;;;;;;5011889;28;20053;-72
2023/12/01 06:29:06;;;;;;;78.28;27.20;;;-2.70;99.90;;;;;;5014923;28;20034;-72
2023/12/01 06:31:32;;;;;;;72.85;27.48;;;-2.80;99.90;;;;;;5012656;28;20451;-71
2023/12/01 06:33:57;;;;;;;68.07;25.35;;;-2.80;99.90;;;;;;5012642;28;20061;-71
2023/12/01 06:36:23;;;;;;;71.82;26.98;;;-2.80;99.90;;;;;;5010059;28;20027;-72
2023/12/01 06:38:48;;;;;;;65.65;26.13;;;-2.70;99.90;;;;;;5009523;28;20030;-72
2023/12/01 06:41:14;;;;;;;74.95;27.67;;;-2.70;99.90;;;;;;5004865;28;20046;-72
2023/12/01 06:43:40;;;;;;;77.00;28.42;;;-2.60;99.90;;;;;;5009136;28;20098;-74
2023/12/01 06:46:05;;;;;;;70.93;27.60;;;-2.50;99.90;;;;;;5011375;28;20061;-71
2023/12/01 06:48:31;;;;;;;77.53;27.10;;;-2.50;99.90;;;;;;5003421;28;20031;-73
2023/12/01 06:50:57;;;;;;;81.60;27.50;;;-2.40;99.90;;;;;;5007438;28;20541;-72
2023/12/01 06:53:22;;;;;;;76.32;27.30;;;-2.30;99.90;;;;;;5013492;28;20029;-71
2023/12/01 06:55:48;;;;;;;73.03;28.67;;;-2.30;99.90;;;;;;5013268;28;20026;-72
2023/12/01 06:58:13;;;;;;;79.25;28.60;;;-2.20;99.90;;;;;;5013745;28;20053;-72
2023/12/01 07:00:39;;;;;;;82.35;29.27;;;-2.20;99.90;;;;;;5012980;28;20034;-71
2023/12/01 07:03:08;;;;;;;81.38;29.15;;;-2.20;99.90;;;;;;5012331;28;20037;-71
2023/12/01 07:05:35;;;;;;;79.35;29.42;;;-2.10;99.90;;;;;;5014022;28;20034;-71
2023/12/01 07:08:03;;;;;;;75.15;28.25;;;-2.10;99.90;;;;;;5014593;28;20062;-72
2023/12/01 07:10:29;;;;;;;77.30;29.33;;;-2.10;99.90;;;;;;5013497;28;20018;-73
2023/12/01 07:12:55;;;;;;;74.90;29.35;;;-2.00;99.90;;;;;;5013983;28;20026;-71
2023/12/01 07:15:22;;;;;;;78.78;30.58;;;-2.00;99.90;;;;;;5014330;28;20030;-72
2023/12/01 07:17:55;;;;;;;77.60;29.45;;;-2.00;99.90;;;;;;5012731;28;20109;-73
2023/12/01 07:20:21;;;;;;;72.38;27.80;;;-1.90;99.90;;;;;;5014137;28;20145;-72
2023/12/01 07:22:48;;;;;;;77.97;30.23;;;-1.90;99.90;;;;;;5013839;28;20038;-72
2023/12/01 07:25:25;;;;;;;76.82;30.08;;;-1.80;99.90;;;;;;5013852;28;20050;-74
2023/12/01 07:27:58;;;;;;;78.10;30.88;;;-1.80;99.90;;;;;;5014036;28;20053;-73
2023/12/01 07:30:24;;;;;;;78.85;28.58;;;-1.80;99.90;;;;;;5013818;28;20045;-71
2023/12/01 07:32:50;;;;;;;79.13;28.83;;;-1.70;99.90;;;;;;5010484;28;20026;-71
2023/12/01 07:35:16;;;;;;;89.45;35.42;;;-1.70;99.90;;;;;;5011461;28;20029;-72
2023/12/01 07:37:43;;;;;;;95.72;37.50;;;-1.70;99.90;;;;;;5012607;28;20113;-72
2023/12/01 07:40:12;;;;;;;88.07;33.25;;;-1.60;99.90;;;;;;5011378;28;20033;-74
2023/12/01 07:42:40;;;;;;;158.35;71.60;;;-1.60;99.90;;;;;;5010775;28;20072;-73
2023/12/01 07:45:07;;;;;;;104.40;41.42;;;-1.60;99.90;;;;;;5012002;28;20660;-73
2023/12/01 07:47:33;;;;;;;103.72;40.38;;;-1.60;99.90;;;;;;5012952;28;20073;-72
2023/12/01 07:50:01;;;;;;;80.85;30.98;;;-1.60;99.90;;;;;;5007903;28;20603;-72
2023/12/01 07:52:26;;;;;;;80.55;29.02;;;-1.50;99.90;;;;;;5013444;28;20022;-71
2023/12/01 07:54:52;;;;;;;84.22;30.67;;;-1.50;99.90;;;;;;5013329;28;20050;-72
2023/12/01 07:57:18;;;;;;;76.10;30.25;;;-1.50;99.90;;;;;;5013709;28;20088;-72
2023/12/01 07:59:44;;;;;;;82.03;30.05;;;-1.40;99.90;;;;;;5011014;28;20039;-72
2023/12/01 08:02:09;;;;;;;77.10;30.55;;;-1.40;99.90;;;;;;5010444;28;20103;-72
2023/12/01 08:04:35;;;;;;;83.85;31.48;;;-1.40;99.90;;;;;;5012708;28;20479;-73
2023/12/01 08:07:01;;;;;;;75.53;30.05;;;-1.40;99.90;;;;;;5011110;28;20116;-73
2023/12/01 08:09:31;;;;;;;75.95;30.52;;;-1.40;99.90;;;;;;5012629;28;20034;-73
2023/12/01 08:11:58;;;;;;;80.45;30.85;;;-1.30;99.90;;;;;;5011659;28;20030;-72
2023/12/01 08:14:23;;;;;;;80.85;30.33;;;-1.30;99.90;;;;;;5010078;28;20457;-72
2023/12/01 08:16:49;;;;;;;81.20;31.13;;;-1.30;99.90;;;;;;5005954;28;20050;-72
2023/12/01 08:19:14;;;;;;;74.53;29.50;;;-1.30;99.90;;;;;;5011543;28;20084;-73
2023/12/01 08:21:40;;;;;;;76.22;29.60;;;-1.30;99.90;;;;;;5011810;28;20034;-73
2023/12/01 08:24:06;;;;;;;76.88;29.48;;;-1.30;99.90;;;;;;5006791;28;20022;-73
2023/12/01 08:26:31;;;;;;;90.43;32.33;;;-1.40;99.90;;;;;;5009349;28;20095;-73
2023/12/01 08:28:57;;;;;;;83.78;31.27;;;-1.30;99.90;;;;;;5012210;28;20045;-72
2023/12/01 08:31:23;;;;;;;75.22;29.30;;;-1.30;99.90;;;;;;5009590;28;20038;-72
2023/12/01 08:33:49;;;;;;;72.57;29.45;;;-1.30;99.90;;;;;;5009568;28;20076;-73
2023/12/01 08:36:14;;;;;;;79.95;30.88;;;-1.30;99.90;;;;;;5009411;28;20483;-72
2023/12/01 08:38:43;;;;;;;83.75;32.88;;;-1.20;99.90;;;;;;5005454;28;20038;-72
2023/12/01 08:41:09;;;;;;;70.82;29.65;;;-1.20;99.90;;;;;;5007457;28;20069;-72
2023/12/01 08:43:34;;;;;;;80.25;30.90;;;-1.20;99.90;;;;;;5007778;28;20539;-72
2023/12/01 08:46:00;;;;;;;74.72;29.60;;;-1.20;99.90;;;;;;5009474;28;20026;-73
2023/12/01 08:48:25;;;;;;;75.97;30.08;;;-1.20;99.90;;;;;;5007445;28;20030;-72
2023/12/01 08:50:51;;;;;;;84.70;31.02;;;-1.10;99.90;;;;;;5008116;28;20030;-73
2023/12/01 08:53:17;;;;;;;90.80;33.45;;;-1.10;99.90;;;;;;5007602;28;20037;-73
2023/12/01 08:55:42;;;;;;;93.03;33.03;;;-1.10;99.90;;;;;;5008426;28;20014;-73
2023/12/01 08:58:08;;;;;;;99.07;34.40;;;-1.10;99.90;;;;;;5009778;28;20086;-72
2023/12/01 09:00:34;;;;;;;102.30;35.63;;;-1.10;99.90;;;;;;5009159;28;21982;-73
2023/12/01 09:03:00;;;;;;;99.38;36.55;;;-1.10;99.90;;;;;;5008007;28;20161;-72
2023/12/01 09:05:26;;;;;;;96.90;37.33;;;-1.10;99.90;;;;;;5010716;28;20515;-72
2023/12/01 09:07:51;;;;;;;123.47;40.03;;;-1.10;99.90;;;;;;5005890;28;20046;-72
2023/12/01 09:10:22;;;;;;;141.82;47.28;;;-1.10;99.90;;;;;;5003645;28;20030;-72
2023/12/01 09:12:49;;;;;;;157.07;50.05;;;-1.10;99.90;;;;;;5007316;28;20034;-72
2023/12/01 09:15:14;;;;;;;124.70;42.03;;;-1.00;99.90;;;;;;5008281;28;20064;-71
2023/12/01 09:17:40;;;;;;;112.97;39.20;;;-1.00;99.90;;;;;;5002890;28;20023;-73
2023/12/01 09:20:08;;;;;;;117.68;40.90;;;-1.00;99.90;;;;;;5004861;28;20026;-73
2023/12/01 09:22:37;;;;;;;102.55;35.90;;;-1.00;99.90;;;;;;5006366;28;20021;-72
2023/12/01 09:25:04;;;;;;;95.80;33.40;;;-1.00;99.90;;;;;;5004883;28;20533;-69
2023/12/01 09:27:29;;;;;;;95.65;33.35;;;-1.00;99.90;;;;;;5007991;28;20514;-72
2023/12/01 09:29:55;;;;;;;100.15;34.13;;;-1.00;99.90;;;;;;5008391;28;20056;-71
2023/12/01 09:32:21;;;;;;;89.25;33.72;;;-1.00;99.90;;;;;;5007816;28;20045;-71
2023/12/01 09:34:47;;;;;;;89.97;31.38;;;-1.00;99.90;;;;;;5009300;28;20040;-70
2023/12/01 09:37:12;;;;;;;90.35;33.42;;;-1.00;99.90;;;;;;5010256;28;20030;-70
2023/12/01 09:39:40;;;;;;;100.57;34.55;;;-1.00;99.90;;;;;;5010501;28;20026;-72
2023/12/01 09:42:06;;;;;;;87.30;31.50;;;-0.90;99.90;;;;;;5007224;28;20042;-73
2023/12/01 09:44:32;;;;;;;88.38;32.65;;;-0.80;99.90;;;;;;5010587;28;20029;-72
2023/12/01 09:47:00;;;;;;;91.47;33.67;;;-0.70;99.90;;;;;;5007921;28;20038;-73
2023/12/01 09:49:30;;;;;;;89.28;33.20;;;-0.50;99.90;;;;;;5007749;28;20030;-71
2023/12/01 09:51:56;;;;;;;87.70;33.63;;;-0.40;99.90;;;;;;5008994;28;20128;-72
2023/12/01 09:54:22;;;;;;;85.10;32.15;;;-0.30;99.90;;;;;;5007387;28;20486;-70
2023/12/01 09:56:47;;;;;;;85.60;31.50;;;-0.30;99.90;;;;;;5003699;28;20038;-71
2023/12/01 09:59:16;;;;;;;85.43;32.95;;;-0.40;99.90;;;;;;5003962;28;20030;-72
2023/12/01 10:01:44;;;;;;;94.93;33.53;;;-0.40;99.90;;;;;;5010175;28;20052;-72
2023/12/01 10:04:10;;;;;;;87.47;32.75;;;-0.40;99.90;;;;;;5011778;28;20053;-73
2023/12/01 10:06:40;;;;;;;88.75;30.67;;;-0.40;99.90;;;;;;5013003;28;20029;-71
2023/12/01 10:09:09;;;;;;;91.32;31.60;;;-0.40;99.90;;;;;;5013854;28;20041;-72
2023/12/01 10:11:36;;;;;;;81.28;31.33;;;-0.40;99.90;;;;;;5011049;28;20041;-73
2023/12/01 10:14:08;;;;;;;84.10;32.10;;;-0.40;99.90;;;;;;5013322;28;20071;-72
2023/12/01 10:16:36;;;;;;;86.22;30.85;;;-0.40;99.90;;;;;;5012233;28;20372;-73
2023/12/01 10:19:06;;;;;;;81.80;31.65;;;-0.40;99.90;;;;;;5014135;28;20033;-72
2023/12/01 10:21:49;;;;;;;84.32;30.45;;;-0.40;99.90;;;;;;5009126;28;20073;-71
2023/12/01 10:24:15;;;;;;;88.28;30.50;;;-0.30;99.90;;;;;;5013776;28;20065;-71
2023/12/01 10:26:42;;;;;;;76.82;29.38;;;-0.30;99.90;;;;;;5013732;28;20046;-72
2023/12/01 10:29:28;;;;;;;78.32;28.83;;;-0.20;99.90;;;;;;5015531;28;20112;-71
2023/12/01 10:31:57;;;;;;;76.47;25.70;;;-0.20;99.90;;;;;;5010556;28;20030;-70
2023/12/01 10:34:23;;;;;;;75.95;28.75;;;-0.20;99.90;;;;;;5015059;28;20031;-70
2023/12/01 10:36:52;;;;;;;77.60;28.55;;;-0.20;99.90;;;;;;5014454;28;20025;-74
2023/12/01 10:39:20;;;;;;;74.57;26.48;;;-0.20;99.90;;;;;;5014461;28;20034;-71
2023/12/01 10:41:47;;;;;;;69.40;24.27;;;-0.20;99.90;;;;;;5012705;28;20042;-73
2023/12/01 10:44:18;;;;;;;72.25;25.42;;;-0.20;99.90;;;;;;5005814;28;20062;-72
2023/12/01 10:46:47;;;;;;;68.82;24.85;;;-0.30;99.90;;;;;;5006977;28;20030;-72
2023/12/01 10:49:19;;;;;;;73.93;26.50;;;-0.20;99.90;;;;;;5010005;28;20037;-71
2023/12/01 10:51:46;;;;;;;68.60;26.23;;;-0.20;99.90;;;;;;5009690;28;20494;-72
2023/12/01 10:54:13;;;;;;;67.38;25.90;;;-0.30;99.90;;;;;;5008637;28;20030;-70
2023/12/01 10:57:16;;;;;;;71.60;25.10;;;-0.30;99.90;;;;;;5010113;28;20426;-71
2023/12/01 10:59:50;;;;;;;69.07;26.00;;;-0.30;99.90;;;;;;5011646;28;20063;-70
2023/12/01 11:02:17;;;;;;;90.45;41.65;;;-0.40;99.90;;;;;;5006701;28;20109;-71
2023/12/01 11:04:46;;;;;;;92.22;39.38;;;-0.40;99.90;;;;;;5012364;28;20026;-72
2023/12/01 11:07:38;;;;;;;82.25;34.13;;;-0.40;99.90;;;;;;5010337;28;20102;-71
2023/12/01 11:10:25;;;;;;;65.60;24.38;;;-0.40;99.90;;;;;;5011529;28;20037;-72
2023/12/01 11:13:19;;;;;;;64.88;25.77;;;-0.40;99.90;;;;;;5009730;28;21140;-70
2023/12/01 11:15:48;;;;;;;71.73;27.53;;;-0.30;99.90;;;;;;5007223;28;20042;-69
2023/12/01 11:18:14;;;;;;;66.40;26.55;;;-0.30;99.90;;;;;;5007641;28;20035;-71
2023/12/01 11:20:44;;;;;;;67.75;26.30;;;-0.30;99.90;;;;;;5012689;28;20037;-71
2023/12/01 11:23:13;;;;;;;80.10;29.70;;;-0.30;99.90;;;;;;5013099;28;20061;-73
2023/12/01 11:25:43;;;;;;;66.53;25.85;;;-0.40;99.90;;;;;;5008941;28;20215;-72
2023/12/01 11:28:21;;;;;;;61.58;24.10;;;-0.40;99.90;;;;;;5011300;28;20052;-72
2023/12/01 11:31:21;;;;;;;119.47;37.42;;;-0.40;99.90;;;;;;5013240;28;20034;-71
2023/12/01 11:33:49;;;;;;;62.50;23.98;;;-0.30;99.90;;;;;;5013029;28;20507;-70
2023/12/01 11:36:25;;;;;;;57.35;22.50;;;-0.30;99.90;;;;;;5012620;28;20033;-70
2023/12/01 11:41:41;;;;;;;50.35;19.40;;;-0.20;99.90;;;;;;5012598;28;20045;-71
2023/12/01 11:44:26;;;;;;;43.90;19.00;;;-0.20;99.90;;;;;;5013088;28;20030;-71
2023/12/01 11:46:59;;;;;;;55.33;21.92;;;-0.10;99.90;;;;;;5011647;28;20034;-71
2023/12/01 11:49:33;;;;;;;55.28;20.92;;;-0.10;99.90;;;;;;5011693;28;20141;-71
2023/12/01 11:52:04;;;;;;;56.80;21.92;;;-0.10;99.90;;;;;;5011831;28;20034;-70
2023/12/01 11:54:37;;;;;;;49.65;19.63;;;-0.10;99.90;;;;;;5012984;28;20030;-71
2023/12/01 11:57:16;;;;;;;58.93;21.93;;;-0.20;99.90;;;;;;5012469;28;20030;-72
2023/12/01 11:59:42;;;;;;;53.42;20.40;;;-0.10;99.90;;;;;;5010757;28;20300;-71
2023/12/01 12:02:07;;;;;;;53.88;20.73;;;-0.10;99.90;;;;;;5010149;28;20050;-71
2023/12/01 12:04:34;;;;;;;55.55;21.60;;;-0.10;99.90;;;;;;5007569;28;20041;-70
2023/12/01 12:07:00;;;;;;;52.20;21.17;;;-0.10;99.90;;;;;;5000258;28;20802;-71
2023/12/01 12:09:32;;;;;;;57.00;22.00;;;0.00;99.90;;;;;;5004323;28;20030;-71
2023/12/01 12:12:00;;;;;;;57.45;21.05;;;0.00;99.90;;;;;;5010912;28;20030;-71
2023/12/01 12:14:27;;;;;;;60.58;22.42;;;0.00;99.90;;;;;;5012816;28;20635;-70
2023/12/01 12:16:53;;;;;;;52.95;20.60;;;0.00;99.90;;;;;;5013476;28;20036;-72
2023/12/01 12:19:19;;;;;;;56.28;21.40;;;0.10;99.90;;;;;;5012833;28;20046;-71
2023/12/01 12:21:46;;;;;;;52.05;19.33;;;0.10;99.90;;;;;;5011888;28;20072;-71
2023/12/01 12:24:12;;;;;;;44.28;17.77;;;0.10;99.90;;;;;;5011223;28;20052;-71
2023/12/01 12:26:37;;;;;;;46.80;18.83;;;0.10;99.90;;;;;;5012131;28;20066;-71
2023/12/01 12:29:05;;;;;;;47.03;18.60;;;0.00;99.90;;;;;;5012142;28;20422;-72
2023/12/01 12:31:36;;;;;;;49.28;19.30;;;0.10;99.90;;;;;;5013331;28;20473;-71
2023/12/01 12:34:04;;;;;;;47.70;18.17;;;0.10;99.90;;;;;;5012673;28;20062;-72